Weather at Montreal / Aéroparc Île Perrot

Public forecast

Using degrees Celsius for public forecast. Weather courtesy of forecast.io.

Closest aviation weather report (METAR) to Montreal / Aéroparc Île Perrot

Closest report is Montreal / Pierre Elliott Trudeau International Airport, 8.9 nm (16.4 km) NE.

2024/05/30 09:00 (retrieved 41 minutes ago)

CYUL 300900Z 27003KT 15SM FEW070 FEW250 08/05 A3001 RMK AC1CI1 SLP164

Closest aviation forecast (TAF) to Montreal / Aéroparc Île Perrot

Closest forecast is Montreal / Pierre Elliott Trudeau International Airport, 8.9 nm (16.4 km) NE.

2024/05/30 09:42 (retrieved 0 seconds ago)

TAF CYUL 300840Z 3009/3106 VRB03KT P6SM FEW240 BECMG 3009/3011 01008KT FM301700 32008KT P6SM FEW060 BECMG 3017/3019 30010KT FM310200 34008KT P6SM SKC RMK NXT FCST BY 301200Z